Alex Bay, NY

11:29 PM EST on February 10, 2016 (GMT -0500)
APRSWXNET | | Change Station
CLOSE
Current Station
Personal Weather Station
Location: Fishers Landing, NY
Elevation: 303 ft
Nearby Weather Stations
Active Advisory: Lake Effect Snow Watch Active Notice: Public Information Statement

Elev 303 ft 44.26 °N, 76.02 °W | Updated 25 minutes ago

Overcast
Overcast
17 °F
Feels Like 7 °F
N
7
Wind Variable Wind from NE
Gusts 9.0 mph

Today
High -- | Low -- °F
--% Chance of Precip.
Yesterday
High -- | Low -- °F
Precip. -- in
Pressure 29.67 in
Visibility 3.0 miles
Clouds Mostly Cloudy 1200 ft
Overcast 1900 ft
Windchill 7 °F
Dew Point 14 °F
Humidity 86%
Rainfall in
Snow Depth Not available.
7:11 AM 5:25 PM
Waxing Crescent, 9% visible
SPECI KGTB 110418Z AUTO 28007KT 3SM -SN BR BKN012 OVC019 M07/M09 A2967 RMK AO2 CIG 012V019
Pressure 29.67 in
Visibility 3.0 miles
Clouds Mostly Cloudy 1200 ft
Overcast 1900 ft
Windchill 7 °F
Dew Point 14 °F
Humidity 86%
Rainfall in
Snow Depth Not available.
7:11 AM 5:25 PM
Waxing Crescent, 9% visible
SPECI KGTB 110418Z AUTO 28007KT 3SM -SN BR BKN012 OVC019 M07/M09 A2967 RMK AO2 CIG 012V019

10-Day Weather Forecast

Almanac

Astronomy

Feb. 10, 2016 Rise Set
Actual Time
Civil Twilight
Nautical Twilight
Astronomical Twilight
Moon
Length of Visible Light
Length of Day
Tomorrow will be .
, % of the Moon is Illuminated

Today's Extremes

State Highs State Lows

Community

WunderPhotos

Upload Photos

1,892,012 photos uploaded!

WunderBlog® & News

Nearby

Air Quality

  Air Quality AQ Index Pollutant
Not available.

Snow Depth

Station Depth Elevation

Earthquake Activity

City Distance Mag. Time & Date
Minimum magnitude displayed is 2.5.

Coastal Water Temperatures

Place Temperature

Stations

Nearby Weather Stations

Station Location Temp. Windchill Dew Point Humidity Wind Precip. Elev Updated Type
                   

Watches & Warnings

Lake Effect Snow Watch
Issued: 10:33 PM EST Feb. 10, 2016 – National Weather Service

... Lake effect snow watch remains in effect from late Thursday
night through late Friday night...

* locations... Jefferson County.

* Timing... from late Thursday night through overnight Friday
night.

* Accumulations... 6 to 12 inches are possible in the most
persistent lake snows.

* Winds... southwest 10 to 20 mph with gusts up to 30 mph.

* Visibilities... as low as a quarter mile at times.

* Impacts... lake effect snow will result in hazardous travel at
times with snow covered roads and greatly reduced visibilities.

* Forecaster confidence... above average. An intense band of
heavy lake effect snow is likely to develop Friday and impact
portions of Jefferson County.

Precautionary/preparedness actions...

A lake effect snow watch means that significant winter weather is
possible in localized areas.

Stay tuned to NOAA Weather Radio or your favorite source of
weather information for the latest updates. Additional details
can also be found at www.Weather.Gov/Buffalo.